createdAt,value
2023-02-19T00:00:59.775Z,99865.69
2023-02-19T00:01:58.795Z,99860.59
2023-02-19T00:02:53.099Z,99871.81
2023-02-19T00:03:46.781Z,99848.34
2023-02-19T00:04:40.813Z,99858.13
2023-02-19T00:05:34.767Z,99858.75
2023-02-19T00:06:28.791Z,99861.19
2023-02-19T00:07:15.789Z,99842.41
2023-02-19T00:07:49.821Z,99847.00
2023-02-19T00:08:38.774Z,99861.53
2023-02-19T00:09:14.218Z,99855.50
2023-02-19T00:10:00.989Z,99844.75
2023-02-19T00:10:34.837Z,99848.94
2023-02-19T00:11:28.745Z,99865.03
2023-02-19T00:12:02.839Z,99845.81
2023-02-19T00:12:44.790Z,99858.00
2023-02-19T00:13:24.848Z,99854.50
2023-02-19T00:14:07.776Z,99858.69
2023-02-19T00:14:49.838Z,99842.72
2023-02-19T00:15:29.768Z,99836.84
2023-02-19T00:16:37.987Z,99857.66
2023-02-19T00:17:17.903Z,99849.31
2023-02-19T00:17:58.777Z,99843.31
2023-02-19T00:18:32.841Z,99852.59
2023-02-19T00:19:22.771Z,99858.63
2023-02-19T00:19:56.882Z,99840.47
2023-02-19T00:20:43.747Z,99843.06
2023-02-19T00:21:17.898Z,99849.72
2023-02-19T00:22:04.750Z,99864.13
2023-02-19T00:22:38.815Z,99844.25
2023-02-19T00:23:18.775Z,99850.63
2023-02-19T00:24:16.768Z,99843.06
2023-02-19T00:25:10.740Z,99863.75
2023-02-19T00:26:17.226Z,99854.25
2023-02-19T00:27:11.764Z,99857.72
2023-02-19T00:28:05.782Z,99855.31
2023-02-19T00:28:46.802Z,99835.75
2023-02-19T00:29:28.970Z,99845.78
2023-02-19T00:30:08.748Z,99857.97
2023-02-19T00:30:48.889Z,99853.38
2023-02-19T00:31:35.920Z,99859.31
2023-02-19T00:32:15.899Z,99838.66
2023-02-19T00:32:58.750Z,99830.78
2023-02-19T00:33:38.831Z,99848.28
2023-02-19T00:34:21.825Z,99854.50
2023-02-19T00:35:02.831Z,99832.78
2023-02-19T00:35:42.754Z,99831.34
2023-02-19T00:36:23.837Z,99843.97
2023-02-19T00:37:03.734Z,99827.56
2023-02-19T00:37:43.781Z,99846.34
2023-02-19T00:38:23.739Z,99829.25
2023-02-19T00:39:05.842Z,99846.84
2023-02-19T00:39:45.825Z,99850.41
2023-02-19T00:40:26.129Z,99847.44
2023-02-19T00:41:06.726Z,99845.84
2023-02-19T00:41:46.852Z,99850.47
2023-02-19T00:42:26.731Z,99832.72
2023-02-19T00:43:06.777Z,99833.25
2023-02-19T00:43:46.739Z,99825.19
2023-02-19T00:44:27.130Z,99825.41
2023-02-19T00:45:06.797Z,99836.13
2023-02-19T00:45:49.823Z,99830.41
2023-02-19T00:46:35.842Z,99833.84
2023-02-19T00:47:16.794Z,99838.22
2023-02-19T00:47:57.735Z,99831.22
2023-02-19T00:48:37.804Z,99811.59
2023-02-19T00:49:30.741Z,99830.31
2023-02-19T00:50:17.753Z,99825.25
2023-02-19T00:51:12.812Z,99826.66
2023-02-19T00:52:06.739Z,99822.41
2023-02-19T00:53:00.742Z,99825.06
2023-02-19T00:53:55.721Z,99808.94
2023-02-19T00:54:49.718Z,99826.25
2023-02-19T00:55:36.742Z,99824.63
2023-02-19T00:56:11.772Z,99806.47
2023-02-19T00:56:58.710Z,99800.81
2023-02-19T00:57:32.765Z,99810.63
2023-02-19T00:58:13.439Z,99804.16
2023-02-19T00:58:54.795Z,99809.13
2023-02-19T00:59:28.795Z,99802.03
2023-02-19T01:00:06.555Z,99808.47
2023-02-19T01:00:46.740Z,99806.13
2023-02-19T01:01:21.787Z,99811.78
2023-02-19T01:01:55.463Z,99820.06
2023-02-19T01:02:35.702Z,99826.06
2023-02-19T01:03:09.783Z,99817.66
2023-02-19T01:03:43.565Z,99832.44
2023-02-19T01:04:24.755Z,99827.09
2023-02-19T01:04:58.821Z,99821.03
2023-02-19T01:05:32.407Z,99814.56
2023-02-19T01:06:15.734Z,99830.44
2023-02-19T01:06:49.840Z,99815.25
2023-02-19T01:07:24.184Z,99821.94
2023-02-19T01:08:03.700Z,99820.91
2023-02-19T01:08:38.816Z,99831.56
2023-02-19T01:09:12.462Z,99812.84
2023-02-19T01:09:52.684Z,99834.88
2023-02-19T01:10:26.758Z,99814.81
2023-02-19T01:11:01.089Z,99825.13
2023-02-19T01:11:41.740Z,99823.25
2023-02-19T01:12:15.783Z,99830.38
2023-02-19T01:12:49.459Z,99814.94
2023-02-19T01:13:29.714Z,99818.22
2023-02-19T01:14:04.994Z,99820.69
2023-02-19T01:14:39.386Z,99819.72
2023-02-19T01:15:19.682Z,99817.94
2023-02-19T01:15:54.315Z,99826.06
2023-02-19T01:16:28.759Z,99828.28
2023-02-19T01:17:08.695Z,99816.84
2023-02-19T01:17:43.808Z,99802.88
2023-02-19T01:18:17.475Z,99812.72
2023-02-19T01:18:58.688Z,99804.34
2023-02-19T01:19:32.749Z,99813.03
2023-02-19T01:20:06.690Z,99804.09
2023-02-19T01:20:49.696Z,99804.66
2023-02-19T01:21:27.807Z,99810.41
2023-02-19T01:22:01.403Z,99812.19
2023-02-19T01:22:41.690Z,99812.19
2023-02-19T01:23:18.756Z,99812.19
2023-02-19T01:23:53.381Z,99782.38
2023-02-19T01:24:34.686Z,99808.75
2023-02-19T01:25:08.808Z,99799.13
2023-02-19T01:25:42.852Z,99779.38
2023-02-19T01:26:27.698Z,99786.72
2023-02-19T01:27:01.753Z,99800.44
2023-02-19T01:27:36.909Z,99801.91
2023-02-19T01:28:17.701Z,99804.81
2023-02-19T01:28:52.751Z,99796.78
2023-02-19T01:29:26.438Z,99793.06
2023-02-19T01:30:06.679Z,99796.78
2023-02-19T01:30:44.750Z,99801.34
2023-02-19T01:31:24.219Z,99794.03
2023-02-19T01:32:04.778Z,99784.81
2023-02-19T01:32:38.754Z,99807.28
2023-02-19T01:33:12.550Z,99778.69
2023-02-19T01:33:55.710Z,99788.72
2023-02-19T01:34:33.219Z,99784.56
2023-02-19T01:35:07.674Z,99782.78
2023-02-19T01:35:47.675Z,99791.81
2023-02-19T01:36:22.761Z,99807.78
2023-02-19T01:36:57.355Z,99785.84
2023-02-19T01:37:38.691Z,99811.88
2023-02-19T01:38:12.845Z,99788.22
2023-02-19T01:38:46.932Z,99794.16
2023-02-19T01:39:26.703Z,99775.78
2023-02-19T01:40:00.753Z,99756.50
2023-02-19T01:40:34.638Z,99798.00
2023-02-19T01:41:19.661Z,99780.00
2023-02-19T01:41:53.742Z,99786.84
2023-02-19T01:42:27.362Z,99795.78
2023-02-19T01:43:09.640Z,99789.53
2023-02-19T01:44:13.746Z,99793.75
2023-02-19T01:44:53.723Z,99797.19
2023-02-19T01:45:38.177Z,99796.59
2023-02-19T01:46:18.679Z,99792.56
2023-02-19T01:46:58.889Z,99770.28
2023-02-19T01:47:38.672Z,99787.88
2023-02-19T01:48:25.745Z,99785.09
2023-02-19T01:49:25.642Z,99787.09
2023-02-19T01:50:13.705Z,99786.47
2023-02-19T01:51:17.810Z,99762.16
2023-02-19T01:52:13.663Z,99768.50
2023-02-19T01:52:47.913Z,99763.00
2023-02-19T01:53:38.659Z,99764.25
2023-02-19T01:54:14.848Z,99780.16
2023-02-19T01:55:02.662Z,99771.81
2023-02-19T01:55:42.676Z,99766.97
2023-02-19T01:56:23.786Z,99760.13
2023-02-19T01:57:04.661Z,99762.13
2023-02-19T01:57:50.715Z,99740.63
2023-02-19T01:58:34.662Z,99771.91
2023-02-19T01:59:15.752Z,99774.03
2023-02-19T02:00:01.662Z,99741.31
2023-02-19T02:00:41.734Z,99770.16
2023-02-19T02:01:21.676Z,99759.25
2023-02-19T02:02:01.787Z,99764.16
2023-02-19T02:02:43.652Z,99764.44
2023-02-19T02:03:25.727Z,99742.66
2023-02-19T02:04:06.652Z,99751.38
2023-02-19T02:04:46.718Z,99766.75
2023-02-19T02:05:52.672Z,99769.88
2023-02-19T02:06:50.647Z,99753.38
2023-02-19T02:07:47.269Z,99741.56
2023-02-19T02:08:52.638Z,99736.19
2023-02-19T02:09:47.768Z,99754.72
2023-02-19T02:10:34.647Z,99758.25
2023-02-19T02:11:09.024Z,99753.25
2023-02-19T02:12:03.668Z,99752.66
2023-02-19T02:12:37.323Z,99750.09
2023-02-19T02:13:24.632Z,99749.59
2023-02-19T02:13:58.981Z,99755.22
2023-02-19T02:14:50.634Z,99747.03
2023-02-19T02:15:34.799Z,99766.41
2023-02-19T02:16:47.640Z,99757.19
2023-02-19T02:17:46.676Z,99753.50
2023-02-19T02:18:49.687Z,99754.53
2023-02-19T02:20:19.615Z,99747.63
2023-02-19T02:21:47.726Z,99757.38
2023-02-19T02:22:39.653Z,99744.56
2023-02-19T02:24:09.671Z,99718.06
2023-02-19T02:25:25.808Z,99739.66
2023-02-19T02:26:24.641Z,99751.41
2023-02-19T02:27:42.666Z,99752.41
2023-02-19T02:29:14.656Z,99744.81
2023-02-19T02:30:12.750Z,99738.59
2023-02-19T02:31:16.670Z,99754.09
2023-02-19T02:32:06.356Z,99756.53
2023-02-19T02:33:04.617Z,99747.69
2023-02-19T02:34:10.664Z,99743.56
2023-02-19T02:35:02.619Z,99723.56
2023-02-19T02:35:50.713Z,99746.91
2023-02-19T02:36:37.647Z,99736.25
2023-02-19T02:37:18.679Z,99749.09
2023-02-19T02:38:02.638Z,99745.91
2023-02-19T02:38:46.691Z,99736.50
2023-02-19T02:39:32.627Z,99743.13
2023-02-19T02:40:22.862Z,99724.56
2023-02-19T02:40:57.335Z,99724.81
2023-02-19T02:41:46.603Z,99716.66
2023-02-19T02:42:29.055Z,99709.09
2023-02-19T02:43:15.624Z,99738.97
2023-02-19T02:43:51.996Z,99743.25
2023-02-19T02:44:48.617Z,99733.91
2023-02-19T02:45:43.713Z,99737.69
2023-02-19T02:46:36.675Z,99730.72
2023-02-19T02:47:37.599Z,99716.66
2023-02-19T02:48:37.015Z,99720.47
2023-02-19T02:49:26.602Z,99725.13
2023-02-19T02:50:07.748Z,99710.22
2023-02-19T02:51:00.633Z,99727.09
2023-02-19T02:51:46.687Z,99725.09
2023-02-19T02:52:48.600Z,99707.41
2023-02-19T02:53:58.486Z,99714.63
2023-02-19T02:54:58.643Z,99718.56
2023-02-19T02:55:44.652Z,99728.22
2023-02-19T02:56:25.629Z,99707.47
2023-02-19T02:57:06.733Z,99702.34
2023-02-19T02:57:46.593Z,99726.13
2023-02-19T02:58:30.702Z,99717.84
2023-02-19T02:59:14.610Z,99729.06
2023-02-19T02:59:54.651Z,99730.41
2023-02-19T03:00:55.650Z,99728.09
2023-02-19T03:03:13.615Z,99716.22
2023-02-19T03:03:57.704Z,99716.34
2023-02-19T03:05:12.581Z,99704.41
2023-02-19T03:05:56.662Z,99702.69
2023-02-19T03:06:40.588Z,99719.16
2023-02-19T03:07:20.659Z,99706.94
2023-02-19T03:08:07.590Z,99711.09
2023-02-19T03:08:53.633Z,99693.19
2023-02-19T03:09:43.012Z,99710.84
2023-02-19T03:10:23.088Z,99699.53
2023-02-19T03:11:31.570Z,99705.13
2023-02-19T03:12:27.190Z,99703.91
2023-02-19T03:13:20.087Z,99705.25
2023-02-19T03:14:41.642Z,99713.44
2023-02-19T03:15:36.274Z,99714.38
2023-02-19T03:16:42.889Z,99694.16
2023-02-19T03:17:54.564Z,99711.47
2023-02-19T03:18:47.487Z,99707.56
2023-02-19T03:19:23.620Z,99709.66
2023-02-19T03:20:05.599Z,99718.44
2023-02-19T03:20:41.626Z,99701.22
2023-02-19T03:21:17.122Z,99714.03
2023-02-19T03:22:08.586Z,99716.63
2023-02-19T03:22:43.635Z,99715.38
2023-02-19T03:23:18.767Z,99718.91
2023-02-19T03:24:18.556Z,99721.25
2023-02-19T03:25:46.568Z,99721.50
2023-02-19T03:26:21.492Z,99720.50
2023-02-19T03:27:10.546Z,99714.88
2023-02-19T03:27:45.463Z,99692.06
2023-02-19T03:28:57.569Z,99713.19
2023-02-19T03:29:33.568Z,99695.22
2023-02-19T03:30:31.625Z,99705.41
2023-02-19T03:31:12.035Z,99705.38
2023-02-19T03:31:53.762Z,99714.03
2023-02-19T03:32:42.542Z,99698.91
2023-02-19T03:33:27.607Z,99701.00
2023-02-19T03:34:12.563Z,99712.09
2023-02-19T03:35:02.650Z,99677.78
2023-02-19T03:35:51.580Z,99708.31
2023-02-19T03:36:40.583Z,99708.06
2023-02-19T03:37:30.619Z,99694.50
2023-02-19T03:38:18.571Z,99692.69
2023-02-19T03:39:11.528Z,99704.75
2023-02-19T03:39:45.646Z,99703.19
2023-02-19T03:40:19.334Z,99698.31
2023-02-19T03:41:12.648Z,99687.31
2023-02-19T03:42:25.575Z,99688.78
2023-02-19T03:43:19.159Z,99701.47
2023-02-19T03:44:30.544Z,99695.63
2023-02-19T03:45:40.958Z,99713.56
2023-02-19T03:46:35.520Z,99687.59
2023-02-19T03:47:35.624Z,99695.84
2023-02-19T03:48:34.250Z,99686.47
2023-02-19T03:49:30.555Z,99694.38
2023-02-19T03:50:35.600Z,99695.72
2023-02-19T03:51:37.529Z,99683.41
2023-02-19T03:52:47.538Z,99688.53
2023-02-19T03:53:29.051Z,99693.31
2023-02-19T03:54:51.550Z,99700.50
2023-02-19T03:55:48.049Z,99698.78
2023-02-19T03:56:48.546Z,99700.50
2023-02-19T03:58:02.538Z,99686.47
2023-02-19T03:59:00.593Z,99702.44
2023-02-19T04:00:02.546Z,99687.53
2023-02-19T04:00:58.104Z,99700.72
2023-02-19T04:01:55.549Z,99692.16
2023-02-19T04:02:48.611Z,99678.88
2023-02-19T04:03:41.569Z,99678.03
2023-02-19T04:04:31.637Z,99689.50
2023-02-19T04:05:23.542Z,99683.91
2023-02-19T04:06:11.585Z,99677.91
2023-02-19T04:06:58.562Z,99689.00
2023-02-19T04:07:42.602Z,99681.44
2023-02-19T04:08:27.535Z,99688.03
2023-02-19T04:09:11.568Z,99666.31
2023-02-19T04:09:50.593Z,99679.25
2023-02-19T04:10:24.764Z,99669.63
2023-02-19T04:11:05.509Z,99689.03
2023-02-19T04:11:39.683Z,99687.94
2023-02-19T04:12:14.908Z,99679.41
2023-02-19T04:13:06.532Z,99680.84
2023-02-19T04:13:48.642Z,99678.63
2023-02-19T04:14:41.541Z,99675.59
2023-02-19T04:15:26.658Z,99676.34
2023-02-19T04:16:13.620Z,99670.72
2023-02-19T04:16:59.609Z,99687.31
2023-02-19T04:18:07.519Z,99658.50
2023-02-19T04:18:50.572Z,99675.09
2023-02-19T04:19:32.509Z,99689.75
2023-02-19T04:20:16.542Z,99688.03
2023-02-19T04:20:52.578Z,99671.03
2023-02-19T04:21:27.131Z,99680.47
2023-02-19T04:22:08.507Z,99671.03
2023-02-19T04:22:43.612Z,99661.78
2023-02-19T04:23:22.184Z,99646.28
2023-02-19T04:24:06.505Z,99669.50
2023-02-19T04:24:56.696Z,99676.09
2023-02-19T04:25:37.518Z,99659.94
2023-02-19T04:26:18.611Z,99683.38
2023-02-19T04:26:59.512Z,99683.13
2023-02-19T04:27:44.575Z,99680.91
2023-02-19T04:28:25.498Z,99673.13
2023-02-19T04:29:05.558Z,99683.13
2023-02-19T04:29:45.493Z,99673.13
2023-02-19T04:30:25.593Z,99677.03
2023-02-19T04:31:05.540Z,99656.53
2023-02-19T04:31:45.626Z,99673.97
2023-02-19T04:32:26.491Z,99651.66
2023-02-19T04:33:06.631Z,99683.13
2023-02-19T04:33:46.503Z,99676.53
2023-02-19T04:34:26.571Z,99677.16
2023-02-19T04:35:06.494Z,99671.66
2023-02-19T04:35:46.557Z,99668.38
2023-02-19T04:36:26.508Z,99677.66
2023-02-19T04:37:06.547Z,99680.34
2023-02-19T04:37:46.480Z,99672.38
2023-02-19T04:38:26.534Z,99669.97
2023-02-19T04:39:06.508Z,99688.53
2023-02-19T04:39:46.597Z,99685.56
2023-02-19T04:40:27.481Z,99673.84
2023-02-19T04:41:07.614Z,99678.34
2023-02-19T04:41:47.727Z,99678.50
2023-02-19T04:42:45.538Z,99682.66
2023-02-19T04:43:32.540Z,99672.63
2023-02-19T04:44:18.529Z,99650.41
2023-02-19T04:45:06.477Z,99676.16
2023-02-19T04:45:46.586Z,99672.41
2023-02-19T04:46:32.181Z,99682.66
2023-02-19T04:47:12.711Z,99666.06
2023-02-19T04:47:46.544Z,99681.16
2023-02-19T04:48:21.188Z,99703.63
2023-02-19T04:49:02.466Z,99687.75
2023-02-19T04:49:36.542Z,99687.25
2023-02-19T04:50:10.212Z,99680.31
2023-02-19T04:50:50.463Z,99689.22
2023-02-19T04:51:24.579Z,99674.31
2023-02-19T04:52:11.491Z,99699.59
2023-02-19T04:52:52.485Z,99673.13
2023-02-19T04:53:47.470Z,99674.19
2023-02-19T04:54:41.480Z,99692.63
2023-02-19T04:55:35.464Z,99686.75
2023-02-19T04:56:31.471Z,99680.19
2023-02-19T04:57:25.476Z,99690.22
2023-02-19T04:58:19.456Z,99673.09
2023-02-19T04:59:13.490Z,99680.38
2023-02-19T05:00:07.468Z,99701.09
2023-02-19T05:01:06.527Z,99704.03
2023-02-19T05:02:00.468Z,99689.16
2023-02-19T05:02:47.498Z,99700.84
2023-02-19T05:03:21.548Z,99687.53
2023-02-19T05:04:08.471Z,99690.47
2023-02-19T05:04:42.638Z,99682.41
2023-02-19T05:05:29.497Z,99688.13
2023-02-19T05:06:03.823Z,99689.72
2023-02-19T05:06:50.473Z,99688.59
2023-02-19T05:07:24.528Z,99699.63
2023-02-19T05:08:11.484Z,99689.63
2023-02-19T05:08:45.540Z,99704.53
2023-02-19T05:09:32.465Z,99693.78
2023-02-19T05:10:06.539Z,99712.31
2023-02-19T05:10:53.445Z,99701.88
2023-02-19T05:11:27.609Z,99712.78
2023-02-19T05:12:14.471Z,99695.06
2023-02-19T05:12:48.565Z,99697.88
2023-02-19T05:13:36.516Z,99683.72
2023-02-19T05:14:10.512Z,99713.72
2023-02-19T05:14:57.452Z,99698.47
2023-02-19T05:15:31.533Z,99693.53
2023-02-19T05:16:22.448Z,99690.00
2023-02-19T05:16:56.525Z,99681.25
2023-02-19T05:17:44.438Z,99693.75
2023-02-19T05:18:18.521Z,99711.75
2023-02-19T05:18:58.476Z,99685.19
2023-02-19T05:19:38.507Z,99685.66
2023-02-19T05:20:20.442Z,99711.63
2023-02-19T05:21:00.662Z,99701.53
2023-02-19T05:21:40.503Z,99695.91
2023-02-19T05:22:21.495Z,99704.22
2023-02-19T05:23:01.432Z,99686.13
2023-02-19T05:23:41.553Z,99697.84
2023-02-19T05:24:21.448Z,99699.47
2023-02-19T05:25:01.509Z,99703.22
2023-02-19T05:25:41.437Z,99703.47
2023-02-19T05:26:27.728Z,99685.75
2023-02-19T05:27:07.445Z,99716.34
2023-02-19T05:27:47.494Z,99699.88
2023-02-19T05:28:34.432Z,99692.41
2023-02-19T05:29:14.487Z,99689.50
2023-02-19T05:29:54.456Z,99693.41
2023-02-19T05:30:35.522Z,99686.34
2023-02-19T05:31:17.548Z,99662.97
2023-02-19T05:31:57.533Z,99687.91
2023-02-19T05:32:37.442Z,99693.41
2023-02-19T05:33:17.493Z,99669.97
2023-02-19T05:33:59.436Z,99693.16
2023-02-19T05:34:39.487Z,99698.16
2023-02-19T05:35:19.457Z,99683.56
2023-02-19T05:36:02.474Z,99681.72
2023-02-19T05:36:43.419Z,99694.78
2023-02-19T05:37:26.092Z,99701.13
2023-02-19T05:38:06.434Z,99671.59
2023-02-19T05:38:47.494Z,99692.38
2023-02-19T05:39:27.429Z,99689.22
2023-02-19T05:40:07.482Z,99694.09
2023-02-19T05:40:48.459Z,99702.63
2023-02-19T05:41:31.545Z,99681.53
2023-02-19T05:42:11.418Z,99703.72
2023-02-19T05:42:51.471Z,99693.59
2023-02-19T05:43:31.412Z,99683.59
2023-02-19T05:44:11.465Z,99702.13
2023-02-19T05:44:51.435Z,99671.88
2023-02-19T05:45:32.480Z,99688.13
2023-02-19T05:46:13.498Z,99678.50
2023-02-19T05:46:54.467Z,99667.28
2023-02-19T05:47:34.404Z,99695.09
2023-02-19T05:48:15.458Z,99678.50
2023-02-19T05:48:56.414Z,99684.72
2023-02-19T05:49:36.457Z,99678.22
2023-02-19T05:50:17.408Z,99670.59
2023-02-19T05:50:57.555Z,99685.06
2023-02-19T05:51:38.439Z,99685.44
2023-02-19T05:52:21.474Z,99683.16
2023-02-19T05:53:01.419Z,99679.94
2023-02-19T05:53:42.550Z,99686.16
2023-02-19T05:54:22.404Z,99669.53
2023-02-19T05:55:02.450Z,99691.66
2023-02-19T05:55:43.399Z,99679.69
2023-02-19T05:56:47.460Z,99682.34
2023-02-19T05:57:43.849Z,99670.41
2023-02-19T05:58:37.411Z,99676.28
2023-02-19T05:59:35.431Z,99685.91
2023-02-19T06:00:33.427Z,99670.63
2023-02-19T06:01:32.409Z,99681.38
2023-02-19T06:02:12.448Z,99673.22
2023-02-19T06:02:53.719Z,99670.53
2023-02-19T06:03:33.392Z,99685.16
2023-02-19T06:04:14.010Z,99682.69
2023-02-19T06:04:55.405Z,99700.50
2023-02-19T06:05:35.450Z,99692.59
2023-02-19T06:06:20.401Z,99687.50
2023-02-19T06:07:00.463Z,99693.47
2023-02-19T06:07:41.406Z,99692.63
2023-02-19T06:08:22.453Z,99698.13
2023-02-19T06:09:03.375Z,99677.25
2023-02-19T06:09:43.442Z,99686.03
2023-02-19T06:10:24.393Z,99672.09
2023-02-19T06:11:05.568Z,99679.16
2023-02-19T06:11:46.417Z,99686.53
2023-02-19T06:12:26.505Z,99696.91
2023-02-19T06:13:07.427Z,99696.56
2023-02-19T06:13:47.548Z,99689.47
2023-02-19T06:14:27.384Z,99703.13
2023-02-19T06:15:07.497Z,99680.91
2023-02-19T06:15:47.414Z,99697.16
2023-02-19T06:16:27.513Z,99705.09
2023-02-19T06:17:08.392Z,99682.75
2023-02-19T06:17:48.575Z,99698.97
2023-02-19T06:18:29.416Z,99708.75
2023-02-19T06:19:10.491Z,99675.09
2023-02-19T06:19:51.382Z,99678.00
2023-02-19T06:20:31.574Z,99698.88
2023-02-19T06:21:14.367Z,99685.06
2023-02-19T06:21:57.445Z,99709.22
2023-02-19T06:22:37.379Z,99700.94
2023-02-19T06:23:17.441Z,99670.66
2023-02-19T06:23:57.433Z,99689.09
2023-02-19T06:24:37.844Z,99679.00
2023-02-19T06:25:19.398Z,99688.13
2023-02-19T06:25:59.498Z,99704.84
2023-02-19T06:26:40.418Z,99687.03
2023-02-19T06:27:20.431Z,99689.22
2023-02-19T06:28:00.370Z,99689.47
2023-02-19T06:28:40.434Z,99683.72
2023-02-19T06:29:21.382Z,99698.50
2023-02-19T06:30:01.494Z,99693.88
2023-02-19T06:30:41.387Z,99683.59
2023-02-19T06:31:22.609Z,99702.59
2023-02-19T06:32:02.465Z,99704.19
2023-02-19T06:32:42.461Z,99680.91
2023-02-19T06:33:23.379Z,99698.94
2023-02-19T06:34:03.470Z,99699.69
2023-02-19T06:34:43.379Z,99701.91
2023-02-19T06:35:23.466Z,99711.16
2023-02-19T06:36:09.358Z,99687.97
2023-02-19T06:36:49.449Z,99694.06
2023-02-19T06:37:30.369Z,99703.50
2023-02-19T06:38:10.434Z,99703.34
2023-02-19T06:38:51.371Z,99680.50
2023-02-19T06:39:32.422Z,99706.53
2023-02-19T06:40:13.411Z,99710.66
2023-02-19T06:40:53.430Z,99681.81
2023-02-19T06:41:34.441Z,99696.75
2023-02-19T06:42:14.514Z,99715.53
2023-02-19T06:42:54.376Z,99720.75
2023-02-19T06:43:34.513Z,99716.75
2023-02-19T06:44:15.372Z,99691.38
2023-02-19T06:44:55.433Z,99685.88
2023-02-19T06:45:36.376Z,99702.94
2023-02-19T06:46:18.554Z,99699.41
2023-02-19T06:47:01.477Z,99715.78
2023-02-19T06:47:41.420Z,99696.75
2023-02-19T06:48:21.354Z,99699.44
2023-02-19T06:49:01.462Z,99700.63
2023-02-19T06:49:42.380Z,99699.66
2023-02-19T06:50:22.464Z,99705.84
2023-02-19T06:51:03.387Z,99726.69
2023-02-19T06:51:43.482Z,99699.88
2023-02-19T06:52:23.352Z,99711.63
2023-02-19T06:53:03.411Z,99710.47
2023-02-19T06:53:44.350Z,99731.38
2023-02-19T06:54:25.719Z,99714.94
2023-02-19T06:55:05.338Z,99731.59
2023-02-19T06:55:46.396Z,99718.91
2023-02-19T06:56:42.381Z,99728.25
2023-02-19T06:57:22.419Z,99722.34
2023-02-19T06:58:03.351Z,99726.13
2023-02-19T06:58:43.407Z,99715.03
2023-02-19T06:59:24.349Z,99719.69
2023-02-19T07:00:04.611Z,99710.69
2023-02-19T07:00:44.402Z,99694.78
2023-02-19T07:01:24.418Z,99722.41
2023-02-19T07:02:05.396Z,99711.38
2023-02-19T07:02:45.438Z,99691.00
2023-02-19T07:03:26.374Z,99707.06
2023-02-19T07:04:06.472Z,99733.22
2023-02-19T07:04:47.375Z,99707.13
2023-02-19T07:05:27.405Z,99721.66
2023-02-19T07:06:08.339Z,99715.44
2023-02-19T07:06:48.400Z,99727.06
2023-02-19T07:07:28.375Z,99730.81
2023-02-19T07:08:08.390Z,99706.50
2023-02-19T07:08:48.325Z,99725.75
2023-02-19T07:09:28.573Z,99735.28
2023-02-19T07:10:09.358Z,99745.53
2023-02-19T07:10:53.391Z,99737.25
2023-02-19T07:11:38.338Z,99719.00
2023-02-19T07:12:18.444Z,99726.47
2023-02-19T07:12:58.345Z,99740.56
2023-02-19T07:13:38.506Z,99736.78
2023-02-19T07:14:23.328Z,99741.09
2023-02-19T07:15:03.466Z,99726.94
2023-02-19T07:15:43.336Z,99747.03
2023-02-19T07:16:23.415Z,99738.44
2023-02-19T07:17:03.328Z,99730.97
2023-02-19T07:17:43.427Z,99736.31
2023-02-19T07:18:24.353Z,99732.53
2023-02-19T07:19:05.417Z,99735.72
2023-02-19T07:19:45.326Z,99738.19
2023-02-19T07:20:25.390Z,99740.63
2023-02-19T07:21:19.332Z,99731.03
2023-02-19T07:21:53.383Z,99734.78
2023-02-19T07:22:40.331Z,99746.19
2023-02-19T07:23:14.420Z,99735.47
2023-02-19T07:23:54.358Z,99747.84
2023-02-19T07:24:34.448Z,99751.09
2023-02-19T07:25:15.668Z,99741.59
2023-02-19T07:25:55.432Z,99722.31
2023-02-19T07:26:36.331Z,99747.63
2023-02-19T07:27:16.463Z,99741.75
2023-02-19T07:27:56.318Z,99723.34
2023-02-19T07:28:36.494Z,99745.97
2023-02-19T07:29:16.375Z,99751.22
2023-02-19T07:30:10.390Z,99747.63
2023-02-19T07:31:04.385Z,99735.88
2023-02-19T07:31:58.454Z,99747.94
2023-02-19T07:32:55.325Z,99741.75
2023-02-19T07:33:49.305Z,99742.31
2023-02-19T07:34:36.314Z,99756.81
2023-02-19T07:35:10.373Z,99743.53
2023-02-19T07:35:58.330Z,99766.19
2023-02-19T07:36:32.372Z,99740.06
2023-02-19T07:37:19.346Z,99744.66
2023-02-19T07:37:53.436Z,99758.66
2023-02-19T07:38:40.311Z,99756.56
2023-02-19T07:39:15.708Z,99761.19
2023-02-19T07:39:56.331Z,99764.38
2023-02-19T07:40:37.051Z,99746.94
2023-02-19T07:41:18.315Z,99748.75
2023-02-19T07:41:58.400Z,99735.50
2023-02-19T07:42:38.301Z,99759.25
2023-02-19T07:43:18.376Z,99754.97
2023-02-19T07:44:00.333Z,99757.72
2023-02-19T07:44:40.399Z,99739.28
2023-02-19T07:45:20.320Z,99758.44
2023-02-19T07:46:00.374Z,99750.13
2023-02-19T07:46:44.311Z,99746.81
2023-02-19T07:47:24.400Z,99750.75
2023-02-19T07:48:05.323Z,99743.94
2023-02-19T07:48:49.391Z,99769.72
2023-02-19T07:49:29.313Z,99758.25
2023-02-19T07:50:09.398Z,99754.06
2023-02-19T07:50:57.321Z,99742.91
2023-02-19T07:51:39.787Z,99763.34
2023-02-19T07:52:20.295Z,99774.47
2023-02-19T07:53:00.650Z,99755.19
2023-02-19T07:53:42.287Z,99756.75
2023-02-19T07:54:22.366Z,99757.19
2023-02-19T07:55:02.544Z,99748.00
2023-02-19T07:55:42.381Z,99762.03
2023-02-19T07:56:23.304Z,99764.25
2023-02-19T07:57:03.417Z,99760.59
2023-02-19T07:57:43.304Z,99778.97
2023-02-19T07:58:23.336Z,99769.63
2023-02-19T07:59:04.314Z,99764.47
2023-02-19T07:59:44.333Z,99763.94
2023-02-19T08:00:26.280Z,99777.66
2023-02-19T08:01:47.339Z,99778.78
2023-02-19T08:02:59.359Z,99785.66
2023-02-19T08:03:53.277Z,99791.00
2023-02-19T08:04:47.317Z,99796.78
2023-02-19T08:05:50.279Z,99772.13
2023-02-19T08:06:44.302Z,99802.06
2023-02-19T08:07:24.351Z,99786.31
2023-02-19T08:08:05.383Z,99779.06
2023-02-19T08:08:46.286Z,99782.25
2023-02-19T08:09:26.431Z,99795.31
2023-02-19T08:10:25.301Z,99789.16
2023-02-19T08:11:29.049Z,99797.00
2023-02-19T08:12:28.287Z,99795.47
2023-02-19T08:13:25.278Z,99788.25
2023-02-19T08:14:05.293Z,99802.53
2023-02-19T08:14:45.371Z,99784.41
2023-02-19T08:15:25.281Z,99786.38
2023-02-19T08:16:42.043Z,99801.66
2023-02-19T08:17:37.304Z,99802.16
2023-02-19T08:18:34.269Z,99790.06
2023-02-19T08:19:28.257Z,99796.22
2023-02-19T08:20:23.269Z,99777.16
2023-02-19T08:21:18.346Z,99793.75
2023-02-19T08:22:12.268Z,99793.22
2023-02-19T08:22:59.305Z,99780.59
2023-02-19T08:23:34.374Z,99768.72
2023-02-19T08:24:21.270Z,99783.41
2023-02-19T08:24:55.331Z,99773.41
2023-02-19T08:25:43.276Z,99776.75
2023-02-19T08:26:17.322Z,99792.81
2023-02-19T08:27:04.273Z,99783.56
2023-02-19T08:27:38.344Z,99799.84
2023-02-19T08:28:19.305Z,99819.69
2023-02-19T08:28:59.320Z,99790.28
2023-02-19T08:29:41.266Z,99806.44
2023-02-19T08:30:21.336Z,99798.34
2023-02-19T08:31:10.752Z,99814.41
2023-02-19T08:31:51.337Z,99804.00
2023-02-19T08:32:31.268Z,99809.47
2023-02-19T08:33:15.365Z,99805.44
2023-02-19T08:33:55.287Z,99795.13
2023-02-19T08:34:35.372Z,99780.56
2023-02-19T08:35:16.290Z,99795.00
2023-02-19T08:35:57.359Z,99798.75
2023-02-19T08:36:37.275Z,99793.34
2023-02-19T08:37:17.300Z,99807.75
2023-02-19T08:37:58.258Z,99781.84
2023-02-19T08:38:40.322Z,99794.47
2023-02-19T08:39:21.180Z,99781.25
2023-02-19T08:40:01.336Z,99808.41
2023-02-19T08:40:42.264Z,99803.69
2023-02-19T08:41:22.384Z,99804.53
2023-02-19T08:42:02.262Z,99815.72
2023-02-19T08:42:42.317Z,99790.66
2023-02-19T08:43:23.253Z,99795.81
2023-02-19T08:44:03.313Z,99812.50